Time;durP1;ratioP1;P1;durP2;ratioP2;P2;SDS_P1;SDS_P2;PMS_P1;PMS_P2;Temp;Humidity;BMP_temperature;BMP_pressure;BME280_temperature;BME280_humidity;BME280_pressure;Samples;Min_cycle;Max_cycle;Signal;HPM_P1;HPM_P2
2023/01/22 00:00:13;;;;;;;18.42;7.13;;;0.70;99.90;;;;;;5050134;28;20123;-63
2023/01/22 00:02:39;;;;;;;9.93;6.10;;;0.70;99.90;;;;;;5051736;28;20044;-63
2023/01/22 00:05:05;;;;;;;10.65;5.43;;;0.60;99.90;;;;;;5050900;28;20485;-63
2023/01/22 00:07:31;;;;;;;9.35;5.82;;;0.60;99.90;;;;;;5034051;28;20132;-63
2023/01/22 00:09:58;;;;;;;10.93;6.10;;;0.60;99.90;;;;;;5051484;28;20476;-63
2023/01/22 00:12:24;;;;;;;14.35;7.47;;;0.60;99.90;;;;;;5050832;28;20116;-63
2023/01/22 00:14:50;;;;;;;12.43;7.68;;;0.60;99.90;;;;;;5049814;28;20120;-63
2023/01/22 00:17:16;;;;;;;14.48;7.88;;;0.50;99.90;;;;;;5051852;28;20037;-63
2023/01/22 00:19:42;;;;;;;13.25;7.00;;;0.50;99.90;;;;;;5051297;28;20135;-63
2023/01/22 00:22:09;;;;;;;11.80;7.15;;;0.50;99.90;;;;;;5051206;28;20041;-63
2023/01/22 00:24:35;;;;;;;13.63;8.13;;;0.50;99.90;;;;;;5050803;28;20040;-63
2023/01/22 00:27:00;;;;;;;12.23;6.97;;;0.50;99.90;;;;;;5050954;28;20045;-63
2023/01/22 00:29:26;;;;;;;13.20;7.03;;;0.50;99.90;;;;;;5041026;28;20029;-64
2023/01/22 00:31:52;;;;;;;10.63;6.65;;;0.40;99.90;;;;;;5031072;28;20037;-64
2023/01/22 00:34:17;;;;;;;10.38;6.75;;;0.40;99.90;;;;;;5030462;28;20041;-63
2023/01/22 00:36:43;;;;;;;10.77;6.30;;;0.40;99.90;;;;;;5030442;28;20102;-63
2023/01/22 00:39:09;;;;;;;9.15;5.60;;;0.40;99.90;;;;;;5032070;28;20084;-63
2023/01/22 00:41:35;;;;;;;9.68;5.72;;;0.40;99.90;;;;;;5031200;28;20045;-63
2023/01/22 00:44:01;;;;;;;10.75;5.20;;;0.50;99.90;;;;;;5030275;28;20045;-63
2023/01/22 00:46:27;;;;;;;9.95;5.25;;;0.60;99.90;;;;;;5030449;28;20044;-64
2023/01/22 00:48:52;;;;;;;8.73;5.25;;;0.70;99.90;;;;;;5031388;28;20505;-64
2023/01/22 00:51:18;;;;;;;11.88;5.40;;;0.70;99.90;;;;;;5029667;28;20041;-63
2023/01/22 00:53:44;;;;;;;9.52;5.13;;;0.70;99.90;;;;;;5030954;28;20033;-64
2023/01/22 00:56:12;;;;;;;9.05;5.07;;;0.80;99.90;;;;;;5030449;28;20049;-64
2023/01/22 00:58:37;;;;;;;8.88;4.80;;;0.80;99.90;;;;;;5014014;28;20144;-63
2023/01/22 01:01:03;;;;;;;10.25;5.43;;;0.80;99.90;;;;;;5023516;28;20534;-64
2023/01/22 01:03:30;;;;;;;10.02;4.85;;;0.90;99.90;;;;;;5033253;28;20048;-63
2023/01/22 01:06:03;;;;;;;8.82;4.57;;;0.90;99.90;;;;;;5050623;28;20044;-64
2023/01/22 01:08:32;;;;;;;9.18;4.95;;;1.00;99.90;;;;;;5051981;28;20041;-63
2023/01/22 01:11:00;;;;;;;10.32;5.25;;;1.00;99.90;;;;;;5051341;28;20041;-63
2023/01/22 01:13:26;;;;;;;10.52;5.35;;;1.00;99.90;;;;;;5050469;28;20045;-64
2023/01/22 01:16:01;;;;;;;10.23;5.30;;;1.20;99.90;;;;;;5050242;28;20045;-64
2023/01/22 01:18:27;;;;;;;7.73;4.77;;;1.20;99.90;;;;;;5050826;28;20048;-64
2023/01/22 01:20:58;;;;;;;8.68;5.30;;;1.20;99.90;;;;;;5034186;28;20073;-63
2023/01/22 01:23:24;;;;;;;8.23;5.38;;;1.20;99.90;;;;;;5050593;28;20116;-63
2023/01/22 01:25:54;;;;;;;12.63;4.47;;;1.30;99.90;;;;;;5049885;28;20083;-63
2023/01/22 01:28:20;;;;;;;8.65;4.70;;;1.20;99.90;;;;;;5049977;28;20511;-64
2023/01/22 01:30:46;;;;;;;9.40;5.30;;;1.20;99.90;;;;;;5050263;28;20481;-64
2023/01/22 01:33:12;;;;;;;10.73;5.32;;;1.20;99.90;;;;;;5050607;28;20040;-63
2023/01/22 01:35:38;;;;;;;10.57;4.82;;;1.20;99.90;;;;;;5033854;28;20049;-64
2023/01/22 01:38:04;;;;;;;8.05;4.90;;;1.20;99.90;;;;;;5051694;28;20037;-63
2023/01/22 01:40:30;;;;;;;9.05;4.22;;;1.20;99.90;;;;;;5034961;28;20040;-64
2023/01/22 01:42:55;;;;;;;9.02;4.65;;;1.20;99.90;;;;;;5054073;28;20041;-63
2023/01/22 01:45:29;;;;;;;10.25;4.90;;;1.20;99.90;;;;;;5053585;28;20032;-64
2023/01/22 01:48:25;;;;;;;8.00;4.78;;;1.20;99.90;;;;;;5036367;28;20544;-64
2023/01/22 01:51:09;;;;;;;9.70;4.50;;;1.20;99.90;;;;;;5055449;28;20033;-63
2023/01/22 01:53:36;;;;;;;11.30;4.80;;;1.20;99.90;;;;;;5053371;28;20440;-63
2023/01/22 01:56:07;;;;;;;13.50;5.00;;;1.20;99.90;;;;;;5054152;28;20048;-63
2023/01/22 01:58:36;;;;;;;10.75;5.32;;;1.20;99.90;;;;;;5035330;28;20113;-64
2023/01/22 02:01:10;;;;;;;10.57;5.25;;;1.20;99.90;;;;;;5017042;28;20041;-63
2023/01/22 02:03:38;;;;;;;11.00;5.53;;;1.20;99.90;;;;;;5038166;28;20115;-63
2023/01/22 02:06:04;;;;;;;9.57;4.47;;;1.20;99.90;;;;;;5053806;28;20120;-63
2023/01/22 02:08:29;;;;;;;10.30;4.57;;;1.20;99.90;;;;;;5052832;28;20163;-63
2023/01/22 02:10:56;;;;;;;9.13;5.05;;;1.20;99.90;;;;;;5053650;28;20506;-63
2023/01/22 02:13:26;;;;;;;9.13;5.05;;;1.20;99.90;;;;;;5036800;28;20107;-63
2023/01/22 02:15:53;;;;;;;12.07;4.40;;;1.30;99.90;;;;;;5036625;28;20041;-63
2023/01/22 02:18:18;;;;;;;14.88;7.40;;;1.20;99.90;;;;;;5054198;28;20033;-64
2023/01/22 02:20:58;;;;;;;9.00;5.32;;;1.20;99.90;;;;;;5030940;28;20036;-64
2023/01/22 02:23:25;;;;;;;11.25;5.22;;;1.30;99.90;;;;;;5033129;28;20041;-63
2023/01/22 02:25:51;;;;;;;11.50;5.00;;;1.20;99.90;;;;;;5034783;28;20061;-64
2023/01/22 02:28:17;;;;;;;9.65;4.97;;;1.20;99.90;;;;;;5032054;28;20494;-63
2023/01/22 02:30:43;;;;;;;12.35;5.70;;;1.20;99.90;;;;;;5017233;28;20037;-64
2023/01/22 02:33:10;;;;;;;8.98;4.82;;;1.20;99.90;;;;;;5017054;28;20486;-63
2023/01/22 02:35:35;;;;;;;9.52;4.65;;;1.20;99.90;;;;;;5052322;28;20547;-64
2023/01/22 02:38:01;;;;;;;11.23;5.03;;;1.30;99.90;;;;;;5036661;28;20045;-64
2023/01/22 02:40:28;;;;;;;9.93;4.60;;;1.30;99.90;;;;;;5052651;28;20079;-63
2023/01/22 02:42:55;;;;;;;8.70;3.97;;;1.30;99.90;;;;;;5035212;28;20543;-63
2023/01/22 02:45:21;;;;;;;8.20;4.85;;;1.30;99.90;;;;;;5052548;28;20066;-64
2023/01/22 02:47:47;;;;;;;8.93;4.47;;;1.40;99.90;;;;;;5051168;28;20072;-63
2023/01/22 02:50:12;;;;;;;8.55;4.70;;;1.40;99.90;;;;;;5051338;28;20065;-64
2023/01/22 02:52:38;;;;;;;9.30;4.20;;;1.50;99.90;;;;;;5053810;28;20041;-63
2023/01/22 02:55:04;;;;;;;8.10;3.53;;;1.50;99.90;;;;;;5052824;28;20044;-64
2023/01/22 02:57:30;;;;;;;8.27;4.22;;;1.50;99.90;;;;;;5051599;28;20533;-64
2023/01/22 02:59:57;;;;;;;7.75;3.83;;;1.50;99.90;;;;;;5053037;28;20045;-64
2023/01/22 03:02:23;;;;;;;6.80;3.28;;;1.60;99.90;;;;;;5052291;28;20037;-63
2023/01/22 03:04:49;;;;;;;9.55;3.15;;;1.60;99.90;;;;;;5053413;28;20041;-63
2023/01/22 03:07:18;;;;;;;6.88;3.17;;;1.60;99.90;;;;;;5051735;28;20524;-63
2023/01/22 03:09:44;;;;;;;7.65;3.17;;;1.70;99.90;;;;;;5053924;28;20393;-64
2023/01/22 03:12:11;;;;;;;7.65;3.50;;;1.70;99.90;;;;;;5051016;28;20032;-63
2023/01/22 03:22:50;;;;;;;10.07;3.25;;;2.00;99.90;;;;;;5053748;28;20451;-64
2023/01/22 03:25:16;;;;;;;7.47;3.40;;;2.10;99.90;;;;;;5051699;28;20111;-63
2023/01/22 03:28:07;;;;;;;12.48;3.15;;;2.00;99.90;;;;;;5052249;28;20497;-63
2023/01/22 03:30:27;;;;;;;7.85;3.33;;;2.00;99.90;;;;;;5051443;28;20048;-64
2023/01/22 03:32:52;;;;;;;6.50;2.92;;;2.10;99.90;;;;;;5051582;28;20037;-63
2023/01/22 03:35:18;;;;;;;6.55;2.65;;;2.10;99.90;;;;;;5034755;28;20084;-63
2023/01/22 03:37:44;;;;;;;6.22;3.17;;;2.10;99.90;;;;;;5053298;28;20102;-63
2023/01/22 03:40:10;;;;;;;7.65;3.13;;;2.10;99.90;;;;;;5041506;28;20520;-63
2023/01/22 03:42:36;;;;;;;5.25;2.90;;;2.10;99.90;;;;;;5033346;28;20037;-63
2023/01/22 03:45:01;;;;;;;10.93;3.15;;;2.20;99.90;;;;;;5032400;28;20414;-63
2023/01/22 03:47:27;;;;;;;5.75;2.80;;;2.20;99.90;;;;;;5031929;28;20478;-64
2023/01/22 03:49:53;;;;;;;7.35;3.35;;;2.20;99.90;;;;;;5031906;28;20132;-63
2023/01/22 03:52:18;;;;;;;7.28;3.05;;;2.20;99.90;;;;;;5031628;28;20073;-63
2023/01/22 03:54:44;;;;;;;6.57;3.15;;;2.20;99.90;;;;;;5015230;28;20072;-63
2023/01/22 03:57:09;;;;;;;7.10;3.30;;;2.20;99.90;;;;;;5015147;28;20120;-63
2023/01/22 03:59:35;;;;;;;6.75;3.28;;;2.20;99.90;;;;;;5014803;28;20863;-63
2023/01/22 04:02:01;;;;;;;12.48;3.30;;;2.10;99.90;;;;;;5031961;28;20037;-64
2023/01/22 04:04:26;;;;;;;7.93;3.70;;;2.20;99.90;;;;;;5013788;28;20116;-64
2023/01/22 04:06:52;;;;;;;6.40;3.25;;;2.20;99.90;;;;;;5030635;28;20037;-63
2023/01/22 04:09:18;;;;;;;8.90;3.33;;;2.10;99.90;;;;;;5014559;28;20064;-63
2023/01/22 04:11:43;;;;;;;8.23;4.55;;;2.10;99.90;;;;;;5015127;28;20100;-64
2023/01/22 04:14:09;;;;;;;7.28;3.45;;;2.10;99.90;;;;;;5030219;28;20041;-63
2023/01/22 04:16:35;;;;;;;7.03;3.60;;;2.10;99.90;;;;;;5031686;28;20037;-63
2023/01/22 04:19:00;;;;;;;11.52;4.35;;;2.10;99.90;;;;;;5031595;28;20172;-63
2023/01/22 04:21:26;;;;;;;8.85;3.40;;;2.10;99.90;;;;;;5030012;28;20068;-63
2023/01/22 04:23:51;;;;;;;7.75;3.85;;;2.00;99.90;;;;;;5031229;28;20448;-63
2023/01/22 04:26:17;;;;;;;8.25;4.28;;;2.00;99.90;;;;;;5030789;28;20038;-64
2023/01/22 04:28:43;;;;;;;8.45;3.95;;;2.00;99.90;;;;;;5030715;28;20051;-63
2023/01/22 04:31:09;;;;;;;11.15;3.78;;;2.00;99.90;;;;;;5030710;28;20119;-63
2023/01/22 04:33:35;;;;;;;18.17;4.53;;;1.90;99.90;;;;;;5035377;28;20052;-63
2023/01/22 04:36:01;;;;;;;9.20;4.10;;;2.00;99.90;;;;;;5050088;28;20049;-64
2023/01/22 04:38:26;;;;;;;8.68;4.25;;;1.90;99.90;;;;;;5050503;28;20037;-63
2023/01/22 04:40:52;;;;;;;8.00;3.90;;;2.00;99.90;;;;;;5051138;28;20131;-63
2023/01/22 04:43:18;;;;;;;6.50;3.10;;;2.00;99.90;;;;;;5032892;28;20067;-64
2023/01/22 04:45:43;;;;;;;8.57;4.07;;;2.00;99.90;;;;;;5051117;28;20041;-63
2023/01/22 04:48:10;;;;;;;7.82;3.53;;;2.00;99.90;;;;;;5051717;28;20043;-63
2023/01/22 04:50:36;;;;;;;9.15;3.08;;;2.00;99.90;;;;;;5051038;28;20033;-63
2023/01/22 04:53:02;;;;;;;8.35;4.47;;;2.10;99.90;;;;;;5051008;28;20436;-64
2023/01/22 04:55:28;;;;;;;12.18;6.05;;;2.00;99.90;;;;;;5051872;28;20028;-64
2023/01/22 04:57:59;;;;;;;13.82;6.13;;;2.00;99.90;;;;;;5050619;28;20388;-63
2023/01/22 05:00:26;;;;;;;10.95;5.00;;;2.00;99.90;;;;;;5050654;28;20063;-63
2023/01/22 05:02:56;;;;;;;29.48;15.30;;;2.00;99.90;;;;;;5050210;28;20081;-63
2023/01/22 05:05:23;;;;;;;13.98;8.18;;;2.10;99.90;;;;;;5043439;28;20041;-63
2023/01/22 05:07:48;;;;;;;12.32;8.45;;;2.10;99.90;;;;;;5030537;28;20175;-63
2023/01/22 05:10:14;;;;;;;8.60;3.55;;;2.00;99.90;;;;;;5030713;28;20116;-63
2023/01/22 05:12:40;;;;;;;10.00;8.00;;;2.00;99.90;;;;;;5032036;28;20482;-63
2023/01/22 05:15:06;;;;;;;9.02;5.30;;;2.00;99.90;;;;;;5031750;28;20045;-63
2023/01/22 05:17:32;;;;;;;10.27;6.72;;;2.00;99.90;;;;;;5034092;28;20112;-63
2023/01/22 05:19:57;;;;;;;7.50;4.15;;;2.00;99.90;;;;;;5034719;28;20138;-63
2023/01/22 05:22:23;;;;;;;6.45;3.58;;;1.90;99.90;;;;;;5033952;28;20081;-64
2023/01/22 05:24:48;;;;;;;10.88;4.22;;;1.90;99.90;;;;;;5033841;28;20077;-63
2023/01/22 05:27:14;;;;;;;7.18;3.60;;;1.90;99.90;;;;;;5017510;28;20443;-63
2023/01/22 05:29:40;;;;;;;8.23;4.32;;;1.90;99.90;;;;;;5035851;28;20048;-63
2023/01/22 05:32:05;;;;;;;14.48;4.28;;;1.90;99.90;;;;;;5033251;28;20072;-63
2023/01/22 05:34:31;;;;;;;8.05;5.07;;;1.90;99.90;;;;;;5035316;28;20129;-63
2023/01/22 05:36:57;;;;;;;7.85;4.70;;;1.90;99.90;;;;;;5034592;28;20077;-63
2023/01/22 05:39:22;;;;;;;10.23;4.43;;;1.90;99.90;;;;;;5022930;28;20036;-64
2023/01/22 05:41:48;;;;;;;10.52;5.65;;;1.80;99.90;;;;;;5037441;28;20051;-63
2023/01/22 05:44:14;;;;;;;18.92;7.18;;;1.80;99.90;;;;;;5055124;28;20123;-63
2023/01/22 05:46:39;;;;;;;7.75;4.43;;;1.80;99.90;;;;;;5053447;28;20124;-63
2023/01/22 05:49:06;;;;;;;8.57;4.25;;;1.90;99.90;;;;;;5053753;28;20470;-63
2023/01/22 05:51:32;;;;;;;7.63;3.60;;;1.90;99.90;;;;;;5054050;28;20557;-63
2023/01/22 05:53:58;;;;;;;9.30;4.03;;;1.90;99.90;;;;;;5054657;28;20036;-63
2023/01/22 05:56:24;;;;;;;10.88;4.70;;;1.90;99.90;;;;;;5054522;28;20037;-63
2023/01/22 05:58:50;;;;;;;9.48;3.60;;;1.90;99.90;;;;;;5054159;28;20552;-63
2023/01/22 06:01:16;;;;;;;8.30;3.83;;;1.90;99.90;;;;;;5054669;28;20041;-63
2023/01/22 06:03:42;;;;;;;8.00;3.90;;;2.00;99.90;;;;;;5054917;28;20397;-64
2023/01/22 06:06:11;;;;;;;9.50;3.90;;;2.00;99.90;;;;;;5052439;28;20037;-63
2023/01/22 06:08:37;;;;;;;6.75;3.90;;;1.90;99.90;;;;;;5054014;28;20041;-64
2023/01/22 06:11:06;;;;;;;10.30;3.40;;;1.90;99.90;;;;;;5053503;28;20037;-63
2023/01/22 06:13:32;;;;;;;6.35;3.17;;;1.90;99.90;;;;;;5052976;28;20069;-64
2023/01/22 06:15:59;;;;;;;7.38;3.33;;;2.00;99.90;;;;;;5053894;28;20041;-64
2023/01/22 06:18:24;;;;;;;6.95;3.15;;;2.00;99.90;;;;;;5052869;28;20045;-63
2023/01/22 06:20:51;;;;;;;5.95;2.78;;;2.00;99.90;;;;;;5052619;28;20040;-63
2023/01/22 06:23:17;;;;;;;8.70;3.05;;;2.00;99.90;;;;;;5053078;28;20041;-64
2023/01/22 06:25:43;;;;;;;8.32;3.75;;;2.00;99.90;;;;;;5053067;28;20410;-64
2023/01/22 06:28:09;;;;;;;8.38;3.00;;;2.00;99.90;;;;;;5033821;28;20482;-64
2023/01/22 06:30:35;;;;;;;10.07;3.22;;;2.00;99.90;;;;;;5053403;28;20191;-63
2023/01/22 06:33:01;;;;;;;11.50;4.47;;;2.00;99.90;;;;;;5036534;28;20037;-64
2023/01/22 06:35:27;;;;;;;7.60;4.32;;;2.00;99.90;;;;;;5051832;28;20099;-64
2023/01/22 06:37:52;;;;;;;7.50;3.45;;;2.00;99.90;;;;;;5054585;28;20043;-64
2023/01/22 06:40:18;;;;;;;9.90;3.92;;;2.00;99.90;;;;;;5052750;28;20128;-64
2023/01/22 06:42:44;;;;;;;5.50;2.78;;;2.00;99.90;;;;;;5052485;28;20072;-64
2023/01/22 06:45:10;;;;;;;5.85;3.00;;;2.00;99.90;;;;;;5052160;28;20072;-64
2023/01/22 06:47:36;;;;;;;8.35;4.30;;;2.00;99.90;;;;;;5054058;28;20041;-63
2023/01/22 06:50:02;;;;;;;6.60;2.63;;;2.00;99.90;;;;;;5052534;28;20473;-63
2023/01/22 06:52:27;;;;;;;7.10;3.55;;;2.00;99.90;;;;;;5035726;28;20033;-64
2023/01/22 06:54:53;;;;;;;8.68;3.38;;;2.00;99.90;;;;;;5041198;28;20045;-64
2023/01/22 06:57:19;;;;;;;7.60;3.78;;;1.90;99.90;;;;;;5032878;28;20044;-64
2023/01/22 06:59:45;;;;;;;8.23;3.33;;;1.90;99.90;;;;;;5033135;28;20128;-64
2023/01/22 07:02:21;;;;;;;8.05;3.40;;;1.90;99.90;;;;;;5031547;28;20106;-64
2023/01/22 07:04:46;;;;;;;8.95;3.53;;;1.90;99.90;;;;;;5032784;28;20042;-64
2023/01/22 07:07:12;;;;;;;7.00;3.65;;;1.90;99.90;;;;;;5032217;28;20044;-64
2023/01/22 07:09:38;;;;;;;7.28;3.20;;;1.90;99.90;;;;;;5031916;28;20052;-64
2023/01/22 07:12:04;;;;;;;9.38;4.25;;;1.90;99.90;;;;;;5032869;28;20389;-64
2023/01/22 07:14:30;;;;;;;7.03;3.60;;;2.00;99.90;;;;;;5032426;28;20033;-64
2023/01/22 07:16:55;;;;;;;9.45;3.80;;;1.90;99.90;;;;;;5032931;28;20037;-64
2023/01/22 07:19:22;;;;;;;6.22;3.13;;;2.00;99.90;;;;;;5033634;28;20037;-64
2023/01/22 07:21:47;;;;;;;7.10;3.45;;;2.00;99.90;;;;;;5032513;28;20041;-64
2023/01/22 07:24:13;;;;;;;7.28;2.72;;;1.90;99.90;;;;;;5032383;28;20052;-64
2023/01/22 07:26:39;;;;;;;7.07;3.45;;;1.90;99.90;;;;;;5032495;28;20052;-63
2023/01/22 07:29:05;;;;;;;7.45;2.88;;;1.90;99.90;;;;;;5035862;28;20033;-64
2023/01/22 07:31:31;;;;;;;7.45;2.75;;;1.90;99.90;;;;;;5051673;28;20190;-64
2023/01/22 07:33:56;;;;;;;7.65;2.80;;;1.90;99.90;;;;;;5035508;28;20497;-64
2023/01/22 07:36:22;;;;;;;7.72;3.75;;;1.90;99.90;;;;;;5051263;28;20390;-64
2023/01/22 07:38:48;;;;;;;6.45;3.20;;;1.90;99.90;;;;;;5051178;28;20052;-64
2023/01/22 07:41:14;;;;;;;5.47;2.72;;;1.90;99.90;;;;;;5051518;28;20127;-64
2023/01/22 07:43:39;;;;;;;6.95;2.70;;;1.90;99.90;;;;;;5051833;28;20048;-64
2023/01/22 07:46:06;;;;;;;7.22;3.97;;;1.90;99.90;;;;;;5051858;28;20037;-64
2023/01/22 07:48:33;;;;;;;6.72;2.80;;;1.90;99.90;;;;;;5052059;28;20075;-64
2023/01/22 07:51:00;;;;;;;7.22;2.85;;;1.90;99.90;;;;;;5052141;28;20041;-64
2023/01/22 07:53:26;;;;;;;6.85;3.72;;;1.90;99.90;;;;;;5051468;28;20057;-64
2023/01/22 07:55:52;;;;;;;8.25;4.00;;;1.90;99.90;;;;;;5051176;28;20040;-64
2023/01/22 07:58:17;;;;;;;9.25;3.28;;;1.90;99.90;;;;;;5034556;28;20421;-64
2023/01/22 08:00:43;;;;;;;6.72;3.80;;;1.90;99.90;;;;;;5050798;28;20382;-64
2023/01/22 08:03:13;;;;;;;7.70;3.65;;;1.90;99.90;;;;;;5050894;28;20508;-64
2023/01/22 08:05:40;;;;;;;10.60;4.18;;;1.90;99.90;;;;;;5050996;28;20045;-64
2023/01/22 08:08:13;;;;;;;7.03;3.58;;;1.90;99.90;;;;;;5051061;28;20497;-64
2023/01/22 08:10:39;;;;;;;51.30;25.75;;;1.90;99.90;;;;;;5052537;28;20037;-64
2023/01/22 08:13:05;;;;;;;44.60;21.80;;;1.90;99.90;;;;;;5033748;28;20107;-64
2023/01/22 08:15:31;;;;;;;18.50;8.60;;;1.90;99.90;;;;;;5029275;28;20034;-64
2023/01/22 08:17:57;;;;;;;49.47;23.70;;;1.90;99.90;;;;;;5041752;28;20552;-64
2023/01/22 08:20:24;;;;;;;26.95;13.45;;;1.90;99.90;;;;;;5033492;28;20124;-64
2023/01/22 08:22:50;;;;;;;14.52;10.07;;;2.00;99.90;;;;;;5052657;28;20049;-64
2023/01/22 08:25:15;;;;;;;14.18;5.93;;;1.90;99.90;;;;;;5044941;28;20099;-64
2023/01/22 08:27:41;;;;;;;7.88;4.00;;;1.90;99.90;;;;;;5044251;28;20398;-64
2023/01/22 08:30:10;;;;;;;8.15;3.20;;;1.90;99.90;;;;;;5028528;28;20042;-64
2023/01/22 08:32:39;;;;;;;9.95;5.45;;;2.00;99.90;;;;;;5028317;28;20121;-64
2023/01/22 08:35:05;;;;;;;9.40;3.70;;;2.00;99.90;;;;;;5027039;28;20063;-64
2023/01/22 08:37:31;;;;;;;9.82;4.68;;;2.00;99.90;;;;;;5037531;28;20044;-64
2023/01/22 08:39:56;;;;;;;8.20;3.90;;;2.00;99.90;;;;;;5041033;28;20052;-64
2023/01/22 08:42:22;;;;;;;7.53;3.55;;;2.00;99.90;;;;;;5046070;28;20043;-64
2023/01/22 08:44:48;;;;;;;8.35;4.00;;;2.00;99.90;;;;;;5038905;28;20053;-64
2023/01/22 08:47:14;;;;;;;6.90;3.58;;;2.00;99.90;;;;;;5015626;28;20065;-64
2023/01/22 08:49:39;;;;;;;10.63;3.70;;;2.00;99.90;;;;;;5046920;28;20073;-64
2023/01/22 08:52:05;;;;;;;6.70;3.78;;;1.90;99.90;;;;;;5030842;28;20036;-63
2023/01/22 08:54:31;;;;;;;8.45;4.07;;;2.00;99.90;;;;;;5028588;28;20082;-64
2023/01/22 08:56:56;;;;;;;7.65;3.63;;;2.00;99.90;;;;;;5044873;28;20045;-64
2023/01/22 08:59:22;;;;;;;7.93;4.07;;;2.00;99.90;;;;;;5048593;28;20132;-64
2023/01/22 09:01:48;;;;;;;8.18;3.95;;;2.00;99.90;;;;;;5037647;28;20041;-64
2023/01/22 09:04:14;;;;;;;7.82;4.10;;;2.00;99.90;;;;;;5048327;28;20469;-64
2023/01/22 09:06:40;;;;;;;10.20;4.38;;;2.00;99.90;;;;;;5030247;28;20103;-64
2023/01/22 09:09:06;;;;;;;12.07;4.32;;;2.00;99.90;;;;;;5046489;28;20032;-64
2023/01/22 09:11:32;;;;;;;7.57;4.10;;;2.00;99.90;;;;;;5047943;28;20111;-64
2023/01/22 09:13:58;;;;;;;7.30;4.60;;;2.00;99.90;;;;;;5031011;28;20041;-64
2023/01/22 09:16:26;;;;;;;9.90;3.58;;;2.10;99.90;;;;;;5038503;28;20148;-64
2023/01/22 09:18:52;;;;;;;10.20;4.55;;;2.10;99.90;;;;;;5014594;28;20045;-63
2023/01/22 09:21:18;;;;;;;8.10;3.97;;;2.10;99.90;;;;;;5052029;28;20036;-64
2023/01/22 09:23:44;;;;;;;7.95;4.60;;;2.10;99.90;;;;;;5049250;28;20052;-64
2023/01/22 09:26:10;;;;;;;7.50;3.88;;;2.10;99.90;;;;;;5034681;28;20049;-64
2023/01/22 09:28:36;;;;;;;8.90;5.80;;;2.10;99.90;;;;;;5063729;28;20040;-63
2023/01/22 09:31:02;;;;;;;7.40;4.38;;;2.10;99.90;;;;;;5028697;28;20069;-64
2023/01/22 09:33:28;;;;;;;6.97;3.58;;;2.20;99.90;;;;;;5028839;28;20045;-63
2023/01/22 09:35:54;;;;;;;7.63;4.20;;;2.20;99.90;;;;;;5029459;28;20114;-64
2023/01/22 09:38:19;;;;;;;6.68;4.10;;;2.20;99.90;;;;;;5036848;28;20055;-63
2023/01/22 09:41:00;;;;;;;8.25;4.57;;;2.10;99.90;;;;;;5051273;28;20574;-63
2023/01/22 09:43:33;;;;;;;11.90;6.75;;;2.20;99.90;;;;;;5027647;28;20488;-64
2023/01/22 09:46:03;;;;;;;8.82;5.15;;;2.20;99.90;;;;;;5027783;28;20087;-64
2023/01/22 09:48:35;;;;;;;7.63;4.53;;;2.20;99.90;;;;;;5033492;28;20355;-63
2023/01/22 09:51:01;;;;;;;8.75;5.53;;;2.20;99.90;;;;;;5030660;28;20120;-63
2023/01/22 09:53:28;;;;;;;10.57;5.82;;;2.20;99.90;;;;;;5048516;28;20116;-64
2023/01/22 09:55:54;;;;;;;10.73;5.78;;;2.20;99.90;;;;;;5048214;28;20048;-64
2023/01/22 09:58:22;;;;;;;9.70;6.03;;;2.30;99.90;;;;;;5048087;28;20041;-64
2023/01/22 10:01:08;;;;;;;9.20;5.20;;;2.30;99.90;;;;;;5047386;28;20052;-64
2023/01/22 10:03:42;;;;;;;13.15;5.57;;;2.30;99.90;;;;;;5051270;28;20755;-63
2023/01/22 10:06:17;;;;;;;9.52;6.07;;;2.30;99.90;;;;;;5050287;28;20048;-63
2023/01/22 10:08:55;;;;;;;10.20;5.40;;;2.30;99.90;;;;;;5051396;28;20044;-64
2023/01/22 10:11:20;;;;;;;7.88;5.10;;;2.30;99.90;;;;;;5032319;28;20044;-64
2023/01/22 10:13:52;;;;;;;12.60;5.80;;;2.30;99.90;;;;;;5032868;28;20037;-64
2023/01/22 10:16:18;;;;;;;8.82;5.40;;;2.30;99.90;;;;;;5033659;28;20037;-64
2023/01/22 10:19:03;;;;;;;11.63;6.20;;;2.30;99.90;;;;;;5055284;28;20044;-64
2023/01/22 10:21:41;;;;;;;9.95;5.68;;;2.30;99.90;;;;;;5053818;28;20405;-64
2023/01/22 10:24:09;;;;;;;9.18;5.88;;;2.30;99.90;;;;;;5030772;28;20041;-64
2023/01/22 10:26:46;;;;;;;10.02;4.88;;;2.30;99.90;;;;;;5032501;28;20044;-64
2023/01/22 10:29:28;;;;;;;12.52;5.90;;;2.30;99.90;;;;;;5033722;28;20136;-63
2023/01/22 10:32:00;;;;;;;8.75;5.35;;;2.40;99.90;;;;;;5035355;28;20418;-64
2023/01/22 10:34:30;;;;;;;11.75;5.47;;;2.40;99.90;;;;;;5040643;28;20053;-64
2023/01/22 10:37:02;;;;;;;8.15;4.50;;;2.40;99.90;;;;;;5031512;28;20505;-64
2023/01/22 10:39:39;;;;;;;9.13;4.80;;;2.30;99.90;;;;;;5029765;28;20053;-64
2023/01/22 10:42:05;;;;;;;9.77;4.05;;;2.30;99.90;;;;;;5035048;28;20494;-64
2023/01/22 10:44:30;;;;;;;7.68;3.90;;;2.30;99.90;;;;;;5057182;28;20187;-64
2023/01/22 10:47:17;;;;;;;8.98;4.00;;;2.30;99.90;;;;;;5037825;28;20151;-64
2023/01/22 10:49:43;;;;;;;9.52;4.03;;;2.20;99.90;;;;;;5046980;28;20163;-64
2023/01/22 10:52:25;;;;;;;10.07;4.90;;;2.20;99.90;;;;;;5032953;28;20140;-64
2023/01/22 10:54:56;;;;;;;8.25;4.55;;;2.20;99.90;;;;;;5037951;28;20128;-64
2023/01/22 10:57:25;;;;;;;9.43;4.40;;;2.20;99.90;;;;;;5049668;28;20041;-64
2023/01/22 11:00:06;;;;;;;8.45;3.63;;;2.30;99.90;;;;;;5047057;28;20049;-64
2023/01/22 11:02:34;;;;;;;8.93;4.07;;;2.30;99.90;;;;;;5038113;28;20494;-64
2023/01/22 11:05:14;;;;;;;7.57;4.20;;;2.30;99.90;;;;;;5031509;28;20046;-64
2023/01/22 11:07:41;;;;;;;10.82;4.63;;;2.30;99.90;;;;;;5049727;28;20052;-64
2023/01/22 11:10:15;;;;;;;7.32;4.10;;;2.30;99.90;;;;;;5061926;28;20037;-64
2023/01/22 11:12:47;;;;;;;9.57;5.13;;;2.30;99.90;;;;;;5023648;28;20083;-64
2023/01/22 11:15:27;;;;;;;9.40;5.10;;;2.40;99.90;;;;;;5044222;28;20072;-64
2023/01/22 11:18:00;;;;;;;12.95;6.28;;;2.40;99.90;;;;;;5023483;28;20045;-64
2023/01/22 11:20:45;;;;;;;8.75;5.57;;;2.30;99.90;;;;;;5012762;28;20513;-64
2023/01/22 11:23:35;;;;;;;11.32;5.60;;;2.40;99.90;;;;;;5010349;28;20116;-64
2023/01/22 11:26:27;;;;;;;11.25;5.70;;;2.40;99.90;;;;;;5044322;28;20049;-64
2023/01/22 11:29:04;;;;;;;10.65;5.30;;;2.40;99.90;;;;;;5050235;28;20048;-64
2023/01/22 11:31:36;;;;;;;9.38;4.70;;;2.50;99.90;;;;;;5047902;28;20541;-64
2023/01/22 11:34:18;;;;;;;9.93;6.25;;;2.50;99.90;;;;;;5025947;28;20092;-64
2023/01/22 11:36:55;;;;;;;8.23;4.10;;;2.50;99.90;;;;;;5039477;28;20067;-64
2023/01/22 11:39:55;;;;;;;10.82;5.25;;;2.60;99.90;;;;;;5027387;28;20040;-64
2023/01/22 11:42:24;;;;;;;9.45;4.75;;;2.60;99.90;;;;;;5047009;28;20049;-64
2023/01/22 11:45:14;;;;;;;9.10;4.80;;;2.70;99.90;;;;;;5038969;28;20055;-63
2023/01/22 11:47:53;;;;;;;7.93;4.18;;;2.70;99.90;;;;;;5053989;28;20041;-64
2023/01/22 11:50:33;;;;;;;11.98;4.50;;;2.80;99.90;;;;;;5028321;28;20140;-64
2023/01/22 11:53:19;;;;;;;8.60;5.13;;;2.80;99.90;;;;;;5028184;28;20072;-64
2023/01/22 11:56:26;;;;;;;9.02;4.85;;;2.80;99.90;;;;;;5021539;28;20068;-64
2023/01/22 11:59:07;;;;;;;7.88;4.10;;;2.90;99.90;;;;;;5027615;28;20504;-64
2023/01/22 12:01:55;;;;;;;7.97;4.30;;;2.90;99.90;;;;;;5028972;28;20383;-64
2023/01/22 12:04:45;;;;;;;9.07;4.63;;;2.90;99.90;;;;;;5029504;28;20046;-64
2023/01/22 12:07:34;;;;;;;7.47;4.05;;;2.90;99.90;;;;;;5028846;28;20103;-64
2023/01/22 12:10:26;;;;;;;6.57;3.83;;;2.90;99.90;;;;;;5035775;28;20033;-64
2023/01/22 12:13:00;;;;;;;8.57;4.40;;;2.90;99.90;;;;;;5038179;28;20033;-64
2023/01/22 12:15:31;;;;;;;7.40;4.47;;;2.90;99.90;;;;;;5039013;28;20033;-64
2023/01/22 12:18:05;;;;;;;7.72;4.40;;;2.90;99.90;;;;;;5037736;28;20076;-64
2023/01/22 12:20:55;;;;;;;9.63;4.78;;;2.90;99.90;;;;;;5045580;28;20171;-64
2023/01/22 12:23:32;;;;;;;10.65;4.72;;;3.00;99.90;;;;;;5023890;28;20044;-64
2023/01/22 12:26:37;;;;;;;9.30;5.15;;;3.00;99.90;;;;;;5010653;28;20047;-64
2023/01/22 12:29:16;;;;;;;8.43;5.05;;;3.00;99.90;;;;;;5009448;28;20041;-64
2023/01/22 12:31:55;;;;;;;9.27;4.20;;;3.00;99.90;;;;;;5047370;28;20102;-64
2023/01/22 12:34:33;;;;;;;11.98;5.72;;;3.10;99.90;;;;;;5066841;28;20135;-64
2023/01/22 12:37:00;;;;;;;8.93;4.75;;;3.10;99.90;;;;;;5043346;28;20057;-64
2023/01/22 12:39:37;;;;;;;8.00;4.57;;;3.10;99.90;;;;;;5027252;28;20409;-64
2023/01/22 12:42:12;;;;;;;8.23;4.53;;;3.10;99.90;;;;;;5026794;28;20045;-64
2023/01/22 12:45:01;;;;;;;8.35;4.32;;;3.20;99.90;;;;;;5047132;28;20047;-64
2023/01/22 12:47:53;;;;;;;9.95;4.25;;;3.20;99.90;;;;;;5046430;28;20131;-64
2023/01/22 12:50:21;;;;;;;8.75;3.50;;;3.20;99.90;;;;;;5048590;28;20124;-64
2023/01/22 12:52:58;;;;;;;7.30;4.13;;;3.30;99.90;;;;;;5042517;28;20044;-64
2023/01/22 12:55:37;;;;;;;9.25;4.35;;;3.30;99.90;;;;;;5032246;28;20041;-64
2023/01/22 12:58:03;;;;;;;7.97;4.45;;;3.30;99.90;;;;;;5027903;28;20034;-64
2023/01/22 13:00:37;;;;;;;6.43;3.83;;;3.30;99.90;;;;;;5032046;28;20053;-64
2023/01/22 13:03:27;;;;;;;6.85;3.85;;;3.30;99.90;;;;;;5026794;28;20060;-64
2023/01/22 13:05:53;;;;;;;6.95;3.88;;;3.30;99.90;;;;;;5028345;28;20052;-64
2023/01/22 13:08:18;;;;;;;7.38;3.97;;;3.30;99.90;;;;;;5009828;28;20038;-64
2023/01/22 13:10:59;;;;;;;7.90;4.35;;;3.30;99.90;;;;;;5027575;28;20034;-64